Terminal Aerodrome Forecast
Issued by NWS

Home | Current Version | Previous Version | Text Only | Print | Product List | Glossary On
Versions: 1 2 3 4 5 6 7 8 9 10 11 12 13 14 15 16 17 18 19
081
FTUS42 KGSP 191141
TAFAND
TAF
KAND 191141Z 1912/2012 07005KT 4SM -RADZ BR OVC003
     FM191600 09004KT P6SM OVC005
     FM192200 08004KT P6SM BKN013
     FM200300 07004KT 4SM BR BKN008
     FM200600 10003KT 1 1/2SM BR OVC003
     FM200900 12003KT 1/2SM FG OVC002=

USA.gov is the U.S. government's official web portal to all federal, state and local government web resources and services.